sensor_id;sensor_type;location;lat;lon;timestamp;temperature;humidity
37910;DHT22;23741;49.446;8.754;2022-08-18T00:00:52;25.70;51.00
37910;DHT22;23741;49.446;8.754;2022-08-18T00:02:55;25.70;51.10
37910;DHT22;23741;49.446;8.754;2022-08-18T00:05:08;25.70;51.00
37910;DHT22;23741;49.446;8.754;2022-08-18T00:07:17;25.70;51.20
37910;DHT22;23741;49.446;8.754;2022-08-18T00:09:19;25.70;51.20
37910;DHT22;23741;49.446;8.754;2022-08-18T00:11:21;25.70;51.10
37910;DHT22;23741;49.446;8.754;2022-08-18T00:13:24;25.70;51.20
37910;DHT22;23741;49.446;8.754;2022-08-18T00:15:25;25.70;50.70
37910;DHT22;23741;49.446;8.754;2022-08-18T00:17:27;25.70;51.10
37910;DHT22;23741;49.446;8.754;2022-08-18T00:19:29;25.70;51.10
37910;DHT22;23741;49.446;8.754;2022-08-18T00:21:48;25.70;51.20
37910;DHT22;23741;49.446;8.754;2022-08-18T00:23:50;25.70;51.10
37910;DHT22;23741;49.446;8.754;2022-08-18T00:25:52;25.70;51.20
37910;DHT22;23741;49.446;8.754;2022-08-18T00:27:55;25.70;51.00
37910;DHT22;23741;49.446;8.754;2022-08-18T00:29:58;25.70;51.10
37910;DHT22;23741;49.446;8.754;2022-08-18T00:32:10;25.60;51.20
37910;DHT22;23741;49.446;8.754;2022-08-18T00:34:11;25.60;51.30
37910;DHT22;23741;49.446;8.754;2022-08-18T00:36:13;25.60;51.40
37910;DHT22;23741;49.446;8.754;2022-08-18T00:38:15;25.60;51.40
37910;DHT22;23741;49.446;8.754;2022-08-18T00:40:27;25.60;50.90
37910;DHT22;23741;49.446;8.754;2022-08-18T00:42:39;25.60;51.10
37910;DHT22;23741;49.446;8.754;2022-08-18T00:44:44;25.60;51.20
37910;DHT22;23741;49.446;8.754;2022-08-18T00:46:46;25.60;51.50
37910;DHT22;23741;49.446;8.754;2022-08-18T00:48:47;25.60;51.60
37910;DHT22;23741;49.446;8.754;2022-08-18T00:52:53;25.60;51.70
37910;DHT22;23741;49.446;8.754;2022-08-18T00:54:55;25.60;51.70
37910;DHT22;23741;49.446;8.754;2022-08-18T00:56:59;25.60;51.70
37910;DHT22;23741;49.446;8.754;2022-08-18T01:01:23;25.60;51.50
37910;DHT22;23741;49.446;8.754;2022-08-18T01:03:26;25.60;51.50
37910;DHT22;23741;49.446;8.754;2022-08-18T01:05:36;25.50;51.50
37910;DHT22;23741;49.446;8.754;2022-08-18T01:07:42;25.50;51.50
37910;DHT22;23741;49.446;8.754;2022-08-18T01:09:47;25.50;51.30
37910;DHT22;23741;49.446;8.754;2022-08-18T01:11:49;25.50;51.30
37910;DHT22;23741;49.446;8.754;2022-08-18T01:13:51;25.50;51.30
37910;DHT22;23741;49.446;8.754;2022-08-18T01:15:54;25.50;51.10
37910;DHT22;23741;49.446;8.754;2022-08-18T01:17:57;25.50;51.10
37910;DHT22;23741;49.446;8.754;2022-08-18T01:20:18;25.50;50.90
37910;DHT22;23741;49.446;8.754;2022-08-18T01:24:48;25.40;51.00
37910;DHT22;23741;49.446;8.754;2022-08-18T01:27:09;25.30;51.00
37910;DHT22;23741;49.446;8.754;2022-08-18T01:29:10;25.30;50.90
37910;DHT22;23741;49.446;8.754;2022-08-18T01:31:31;25.20;51.00
37910;DHT22;23741;49.446;8.754;2022-08-18T01:33:36;25.20;51.00
37910;DHT22;23741;49.446;8.754;2022-08-18T01:35:39;25.20;51.20
37910;DHT22;23741;49.446;8.754;2022-08-18T01:37:42;25.20;51.20
37910;DHT22;23741;49.446;8.754;2022-08-18T01:39:44;25.20;51.10
37910;DHT22;23741;49.446;8.754;2022-08-18T01:42:06;25.20;51.20
37910;DHT22;23741;49.446;8.754;2022-08-18T01:44:08;25.10;51.30
37910;DHT22;23741;49.446;8.754;2022-08-18T01:46:12;25.10;51.10
37910;DHT22;23741;49.446;8.754;2022-08-18T01:48:14;25.00;51.30
37910;DHT22;23741;49.446;8.754;2022-08-18T01:50:16;25.10;51.40
37910;DHT22;23741;49.446;8.754;2022-08-18T01:52:19;25.00;51.30
37910;DHT22;23741;49.446;8.754;2022-08-18T01:54:21;25.00;51.40
37910;DHT22;23741;49.446;8.754;2022-08-18T01:56:23;25.00;51.20
37910;DHT22;23741;49.446;8.754;2022-08-18T01:58:28;25.00;51.60
37910;DHT22;23741;49.446;8.754;2022-08-18T02:00:32;25.00;51.60
37910;DHT22;23741;49.446;8.754;2022-08-18T02:02:34;25.00;51.60
37910;DHT22;23741;49.446;8.754;2022-08-18T02:04:36;25.00;51.60
37910;DHT22;23741;49.446;8.754;2022-08-18T02:06:38;24.90;51.70
37910;DHT22;23741;49.446;8.754;2022-08-18T02:08:47;24.90;51.70
37910;DHT22;23741;49.446;8.754;2022-08-18T02:10:54;25.00;51.90
37910;DHT22;23741;49.446;8.754;2022-08-18T02:12:59;24.90;51.90
37910;DHT22;23741;49.446;8.754;2022-08-18T02:15:01;24.90;52.00
37910;DHT22;23741;49.446;8.754;2022-08-18T02:17:05;24.90;52.00
37910;DHT22;23741;49.446;8.754;2022-08-18T02:19:08;25.00;52.00
37910;DHT22;23741;49.446;8.754;2022-08-18T02:21:14;24.90;52.00
37910;DHT22;23741;49.446;8.754;2022-08-18T02:23:19;24.90;52.10
37910;DHT22;23741;49.446;8.754;2022-08-18T02:25:21;24.90;52.10
37910;DHT22;23741;49.446;8.754;2022-08-18T02:27:23;24.90;52.20
37910;DHT22;23741;49.446;8.754;2022-08-18T02:29:27;24.90;52.20
37910;DHT22;23741;49.446;8.754;2022-08-18T02:31:29;24.90;52.30
37910;DHT22;23741;49.446;8.754;2022-08-18T02:33:30;24.90;52.30
37910;DHT22;23741;49.446;8.754;2022-08-18T02:35:32;24.90;52.10
37910;DHT22;23741;49.446;8.754;2022-08-18T02:37:34;24.90;52.30
37910;DHT22;23741;49.446;8.754;2022-08-18T02:39:36;24.90;52.30
37910;DHT22;23741;49.446;8.754;2022-08-18T02:41:38;24.90;52.40
37910;DHT22;23741;49.446;8.754;2022-08-18T02:43:40;24.90;52.40
37910;DHT22;23741;49.446;8.754;2022-08-18T02:45:42;24.90;52.20
37910;DHT22;23741;49.446;8.754;2022-08-18T02:47:44;24.90;52.90
37910;DHT22;23741;49.446;8.754;2022-08-18T02:49:46;24.90;52.40
37910;DHT22;23741;49.446;8.754;2022-08-18T02:51:48;24.90;52.40
37910;DHT22;23741;49.446;8.754;2022-08-18T02:53:51;24.90;52.60
37910;DHT22;23741;49.446;8.754;2022-08-18T02:55:54;24.90;52.70
37910;DHT22;23741;49.446;8.754;2022-08-18T02:57:56;24.90;52.50
37910;DHT22;23741;49.446;8.754;2022-08-18T02:59:59;24.90;52.60
37910;DHT22;23741;49.446;8.754;2022-08-18T03:02:02;24.90;52.60
37910;DHT22;23741;49.446;8.754;2022-08-18T03:04:05;24.90;52.80
37910;DHT22;23741;49.446;8.754;2022-08-18T03:06:10;24.90;52.80
37910;DHT22;23741;49.446;8.754;2022-08-18T03:08:21;24.90;52.70
37910;DHT22;23741;49.446;8.754;2022-08-18T03:10:23;24.80;53.00
37910;DHT22;23741;49.446;8.754;2022-08-18T03:12:34;24.80;53.00
37910;DHT22;23741;49.446;8.754;2022-08-18T03:14:36;24.90;53.00
37910;DHT22;23741;49.446;8.754;2022-08-18T03:16:39;24.80;53.00
37910;DHT22;23741;49.446;8.754;2022-08-18T03:18:55;24.80;52.80
37910;DHT22;23741;49.446;8.754;2022-08-18T03:20:57;24.80;53.00
37910;DHT22;23741;49.446;8.754;2022-08-18T03:23:01;24.80;53.20
37910;DHT22;23741;49.446;8.754;2022-08-18T03:25:10;24.80;53.10
37910;DHT22;23741;49.446;8.754;2022-08-18T03:27:12;24.70;53.20
37910;DHT22;23741;49.446;8.754;2022-08-18T03:29:13;24.70;53.10
37910;DHT22;23741;49.446;8.754;2022-08-18T03:31:16;24.70;53.10
37910;DHT22;23741;49.446;8.754;2022-08-18T03:33:18;24.70;53.00
37910;DHT22;23741;49.446;8.754;2022-08-18T03:35:19;24.70;53.20
37910;DHT22;23741;49.446;8.754;2022-08-18T03:37:21;24.70;53.00
37910;DHT22;23741;49.446;8.754;2022-08-18T03:39:23;24.70;52.90
37910;DHT22;23741;49.446;8.754;2022-08-18T03:41:25;24.70;53.00
37910;DHT22;23741;49.446;8.754;2022-08-18T03:43:48;24.70;53.10
37910;DHT22;23741;49.446;8.754;2022-08-18T03:45:53;24.70;53.00
37910;DHT22;23741;49.446;8.754;2022-08-18T03:47:58;24.70;53.00
37910;DHT22;23741;49.446;8.754;2022-08-18T03:50:01;24.70;53.10
37910;DHT22;23741;49.446;8.754;2022-08-18T03:52:02;24.70;52.90
37910;DHT22;23741;49.446;8.754;2022-08-18T03:54:06;24.70;53.10
37910;DHT22;23741;49.446;8.754;2022-08-18T03:56:08;24.70;53.20
37910;DHT22;23741;49.446;8.754;2022-08-18T03:58:18;24.70;53.20
37910;DHT22;23741;49.446;8.754;2022-08-18T04:00:20;24.70;53.20
37910;DHT22;23741;49.446;8.754;2022-08-18T04:02:22;24.70;53.20
37910;DHT22;23741;49.446;8.754;2022-08-18T04:04:25;24.70;53.10
37910;DHT22;23741;49.446;8.754;2022-08-18T04:06:32;24.70;53.10
37910;DHT22;23741;49.446;8.754;2022-08-18T04:08:34;24.70;53.20
37910;DHT22;23741;49.446;8.754;2022-08-18T04:10:36;24.70;53.20
37910;DHT22;23741;49.446;8.754;2022-08-18T04:12:39;24.70;53.30
37910;DHT22;23741;49.446;8.754;2022-08-18T04:14:41;24.70;53.50
37910;DHT22;23741;49.446;8.754;2022-08-18T04:16:44;24.70;53.40
37910;DHT22;23741;49.446;8.754;2022-08-18T04:18:46;24.70;53.40
37910;DHT22;23741;49.446;8.754;2022-08-18T04:20:51;24.70;53.30
37910;DHT22;23741;49.446;8.754;2022-08-18T04:23:00;24.70;53.40
37910;DHT22;23741;49.446;8.754;2022-08-18T04:25:02;24.60;53.40
37910;DHT22;23741;49.446;8.754;2022-08-18T04:27:04;24.60;53.40
37910;DHT22;23741;49.446;8.754;2022-08-18T04:29:06;24.60;53.60
37910;DHT22;23741;49.446;8.754;2022-08-18T04:31:09;24.60;53.60
37910;DHT22;23741;49.446;8.754;2022-08-18T04:33:12;24.60;53.40
37910;DHT22;23741;49.446;8.754;2022-08-18T04:35:13;24.60;53.40
37910;DHT22;23741;49.446;8.754;2022-08-18T04:37:15;24.60;53.60
37910;DHT22;23741;49.446;8.754;2022-08-18T04:39:17;24.50;53.70
37910;DHT22;23741;49.446;8.754;2022-08-18T04:41:19;24.50;53.80
37910;DHT22;23741;49.446;8.754;2022-08-18T04:43:28;24.50;54.00
37910;DHT22;23741;49.446;8.754;2022-08-18T04:45:31;24.50;54.20
37910;DHT22;23741;49.446;8.754;2022-08-18T04:47:32;24.50;54.20
37910;DHT22;23741;49.446;8.754;2022-08-18T04:49:36;24.50;54.20
37910;DHT22;23741;49.446;8.754;2022-08-18T04:51:39;24.50;54.30
37910;DHT22;23741;49.446;8.754;2022-08-18T04:54:01;24.50;54.30
37910;DHT22;23741;49.446;8.754;2022-08-18T04:56:03;24.50;54.20
37910;DHT22;23741;49.446;8.754;2022-08-18T04:58:05;24.50;54.50
37910;DHT22;23741;49.446;8.754;2022-08-18T05:00:08;24.50;54.50
37910;DHT22;23741;49.446;8.754;2022-08-18T05:02:14;24.50;54.50
37910;DHT22;23741;49.446;8.754;2022-08-18T05:04:16;24.50;54.50
37910;DHT22;23741;49.446;8.754;2022-08-18T05:06:18;24.50;54.50
37910;DHT22;23741;49.446;8.754;2022-08-18T05:08:21;24.50;54.50
37910;DHT22;23741;49.446;8.754;2022-08-18T05:10:22;24.50;54.40
37910;DHT22;23741;49.446;8.754;2022-08-18T05:12:24;24.50;54.70
37910;DHT22;23741;49.446;8.754;2022-08-18T05:14:27;24.50;54.70
37910;DHT22;23741;49.446;8.754;2022-08-18T05:16:29;24.50;54.80
37910;DHT22;23741;49.446;8.754;2022-08-18T05:18:35;24.50;54.50
37910;DHT22;23741;49.446;8.754;2022-08-18T05:20:43;24.50;54.50
37910;DHT22;23741;49.446;8.754;2022-08-18T05:22:46;24.40;54.50
37910;DHT22;23741;49.446;8.754;2022-08-18T05:24:48;24.40;54.50
37910;DHT22;23741;49.446;8.754;2022-08-18T05:26:50;24.50;54.90
37910;DHT22;23741;49.446;8.754;2022-08-18T05:28:53;24.40;54.80
37910;DHT22;23741;49.446;8.754;2022-08-18T05:31:16;24.40;54.70
37910;DHT22;23741;49.446;8.754;2022-08-18T05:33:21;24.40;55.00
37910;DHT22;23741;49.446;8.754;2022-08-18T05:35:24;24.40;54.80
37910;DHT22;23741;49.446;8.754;2022-08-18T05:37:29;24.40;55.10
37910;DHT22;23741;49.446;8.754;2022-08-18T05:39:55;24.40;55.30
37910;DHT22;23741;49.446;8.754;2022-08-18T05:42:05;24.40;55.00
37910;DHT22;23741;49.446;8.754;2022-08-18T05:44:09;24.40;55.40
37910;DHT22;23741;49.446;8.754;2022-08-18T05:46:12;24.40;55.30
37910;DHT22;23741;49.446;8.754;2022-08-18T05:48:15;24.40;55.20
37910;DHT22;23741;49.446;8.754;2022-08-18T05:50:17;24.40;55.20
37910;DHT22;23741;49.446;8.754;2022-08-18T05:52:33;24.40;55.00
37910;DHT22;23741;49.446;8.754;2022-08-18T05:54:41;24.40;54.90
37910;DHT22;23741;49.446;8.754;2022-08-18T05:57:20;24.40;55.10
37910;DHT22;23741;49.446;8.754;2022-08-18T05:59:24;24.40;55.10
37910;DHT22;23741;49.446;8.754;2022-08-18T06:01:36;24.40;55.30
37910;DHT22;23741;49.446;8.754;2022-08-18T06:03:49;24.30;55.20
37910;DHT22;23741;49.446;8.754;2022-08-18T06:05:54;24.40;55.20
37910;DHT22;23741;49.446;8.754;2022-08-18T06:07:59;24.30;55.20
37910;DHT22;23741;49.446;8.754;2022-08-18T06:10:02;24.40;55.30
37910;DHT22;23741;49.446;8.754;2022-08-18T06:12:26;24.40;55.50
37910;DHT22;23741;49.446;8.754;2022-08-18T06:14:29;24.40;55.80
37910;DHT22;23741;49.446;8.754;2022-08-18T06:25:02;24.40;55.60
37910;DHT22;23741;49.446;8.754;2022-08-18T06:27:16;24.40;55.50
37910;DHT22;23741;49.446;8.754;2022-08-18T06:31:30;24.40;55.60
37910;DHT22;23741;49.446;8.754;2022-08-18T06:35:45;24.40;55.40
37910;DHT22;23741;49.446;8.754;2022-08-18T06:40:33;24.40;55.80
37910;DHT22;23741;49.446;8.754;2022-08-18T06:42:35;24.40;55.60
37910;DHT22;23741;49.446;8.754;2022-08-18T06:44:45;24.50;55.80
37910;DHT22;23741;49.446;8.754;2022-08-18T06:49:10;24.50;55.80
37910;DHT22;23741;49.446;8.754;2022-08-18T06:51:14;24.50;55.90
37910;DHT22;23741;49.446;8.754;2022-08-18T06:53:18;24.60;55.80
37910;DHT22;23741;49.446;8.754;2022-08-18T06:55:41;24.60;55.80
37910;DHT22;23741;49.446;8.754;2022-08-18T06:57:54;24.60;55.80
37910;DHT22;23741;49.446;8.754;2022-08-18T06:59:58;24.60;55.90
37910;DHT22;23741;49.446;8.754;2022-08-18T07:04:37;24.60;55.80
37910;DHT22;23741;49.446;8.754;2022-08-18T07:06:40;24.60;55.80
37910;DHT22;23741;49.446;8.754;2022-08-18T07:08:42;24.70;56.00
37910;DHT22;23741;49.446;8.754;2022-08-18T07:10:46;24.70;55.90
37910;DHT22;23741;49.446;8.754;2022-08-18T07:12:48;24.70;56.00
37910;DHT22;23741;49.446;8.754;2022-08-18T07:15:00;24.70;55.90
37910;DHT22;23741;49.446;8.754;2022-08-18T07:17:06;24.70;56.00
37910;DHT22;23741;49.446;8.754;2022-08-18T07:19:13;24.70;56.00
37910;DHT22;23741;49.446;8.754;2022-08-18T07:21:24;24.70;56.00
37910;DHT22;23741;49.446;8.754;2022-08-18T07:23:36;24.70;56.00
37910;DHT22;23741;49.446;8.754;2022-08-18T07:25:42;24.70;56.00
37910;DHT22;23741;49.446;8.754;2022-08-18T07:27:46;24.80;56.00
37910;DHT22;23741;49.446;8.754;2022-08-18T07:30:04;24.80;56.00
37910;DHT22;23741;49.446;8.754;2022-08-18T07:32:12;24.80;56.00
37910;DHT22;23741;49.446;8.754;2022-08-18T07:34:35;24.80;55.80
37910;DHT22;23741;49.446;8.754;2022-08-18T07:36:41;24.70;55.80
37910;DHT22;23741;49.446;8.754;2022-08-18T07:38:49;24.70;55.70
37910;DHT22;23741;49.446;8.754;2022-08-18T07:40:54;24.80;55.90
37910;DHT22;23741;49.446;8.754;2022-08-18T07:43:04;24.80;56.00
37910;DHT22;23741;49.446;8.754;2022-08-18T07:47:36;24.80;56.00
37910;DHT22;23741;49.446;8.754;2022-08-18T07:49:38;24.80;56.10
37910;DHT22;23741;49.446;8.754;2022-08-18T07:52:06;24.80;56.00
37910;DHT22;23741;49.446;8.754;2022-08-18T07:54:52;24.80;56.00
37910;DHT22;23741;49.446;8.754;2022-08-18T07:59:24;24.80;56.30
37910;DHT22;23741;49.446;8.754;2022-08-18T08:01:34;24.80;56.30
37910;DHT22;23741;49.446;8.754;2022-08-18T08:05:57;24.80;56.20
37910;DHT22;23741;49.446;8.754;2022-08-18T08:08:08;24.80;56.10
37910;DHT22;23741;49.446;8.754;2022-08-18T08:36:31;24.80;56.20
37910;DHT22;23741;49.446;8.754;2022-08-18T08:38:42;24.80;55.90
37910;DHT22;23741;49.446;8.754;2022-08-18T08:43:01;24.70;56.20
37910;DHT22;23741;49.446;8.754;2022-08-18T08:45:06;24.70;56.20
37910;DHT22;23741;49.446;8.754;2022-08-18T08:51:40;24.70;56.50
37910;DHT22;23741;49.446;8.754;2022-08-18T08:53:45;24.70;56.40
37910;DHT22;23741;49.446;8.754;2022-08-18T08:55:49;24.70;56.40
37910;DHT22;23741;49.446;8.754;2022-08-18T09:00:04;24.60;56.50
37910;DHT22;23741;49.446;8.754;2022-08-18T09:16:14;24.60;56.90
37910;DHT22;23741;49.446;8.754;2022-08-18T09:25:11;24.70;57.10
37910;DHT22;23741;49.446;8.754;2022-08-18T09:27:44;24.60;57.10
37910;DHT22;23741;49.446;8.754;2022-08-18T09:30:08;24.60;57.00
37910;DHT22;23741;49.446;8.754;2022-08-18T09:32:41;24.60;57.10
37910;DHT22;23741;49.446;8.754;2022-08-18T09:41:45;24.60;57.60
37910;DHT22;23741;49.446;8.754;2022-08-18T09:45:56;24.70;57.90
37910;DHT22;23741;49.446;8.754;2022-08-18T09:48:02;24.70;57.80
37910;DHT22;23741;49.446;8.754;2022-08-18T09:54:27;24.70;58.10
37910;DHT22;23741;49.446;8.754;2022-08-18T09:58:58;24.80;58.30
37910;DHT22;23741;49.446;8.754;2022-08-18T10:01:31;24.80;58.20
37910;DHT22;23741;49.446;8.754;2022-08-18T10:03:36;24.80;58.00
37910;DHT22;23741;49.446;8.754;2022-08-18T10:05:38;24.80;58.20
37910;DHT22;23741;49.446;8.754;2022-08-18T10:10:05;24.90;57.90
37910;DHT22;23741;49.446;8.754;2022-08-18T10:16:43;25.00;58.20
37910;DHT22;23741;49.446;8.754;2022-08-18T10:19:12;25.00;58.20
37910;DHT22;23741;49.446;8.754;2022-08-18T10:21:18;25.00;58.40
37910;DHT22;23741;49.446;8.754;2022-08-18T10:25:50;25.10;58.50
37910;DHT22;23741;49.446;8.754;2022-08-18T10:27:53;25.20;58.40
37910;DHT22;23741;49.446;8.754;2022-08-18T10:29:59;25.20;58.40
37910;DHT22;23741;49.446;8.754;2022-08-18T10:34:09;25.30;58.50
37910;DHT22;23741;49.446;8.754;2022-08-18T10:38:37;25.30;58.20
37910;DHT22;23741;49.446;8.754;2022-08-18T10:40:59;25.30;58.40
37910;DHT22;23741;49.446;8.754;2022-08-18T10:43:17;25.30;57.90
37910;DHT22;23741;49.446;8.754;2022-08-18T10:45:43;25.40;58.30
37910;DHT22;23741;49.446;8.754;2022-08-18T10:50:27;25.40;58.10
37910;DHT22;23741;49.446;8.754;2022-08-18T10:52:44;25.40;58.10
37910;DHT22;23741;49.446;8.754;2022-08-18T10:57:46;25.40;58.10
37910;DHT22;23741;49.446;8.754;2022-08-18T11:06:41;25.50;58.20
37910;DHT22;23741;49.446;8.754;2022-08-18T11:08:46;25.50;58.20
37910;DHT22;23741;49.446;8.754;2022-08-18T11:10:48;25.50;58.40
37910;DHT22;23741;49.446;8.754;2022-08-18T11:13:17;25.50;58.40
37910;DHT22;23741;49.446;8.754;2022-08-18T11:15:44;25.50;58.30
37910;DHT22;23741;49.446;8.754;2022-08-18T11:20:12;25.60;58.30
37910;DHT22;23741;49.446;8.754;2022-08-18T11:22:25;25.70;58.30
37910;DHT22;23741;49.446;8.754;2022-08-18T11:24:33;25.70;58.30
37910;DHT22;23741;49.446;8.754;2022-08-18T11:28:54;25.80;58.40
37910;DHT22;23741;49.446;8.754;2022-08-18T11:30:55;25.80;58.40
37910;DHT22;23741;49.446;8.754;2022-08-18T11:32:58;25.90;58.40
37910;DHT22;23741;49.446;8.754;2022-08-18T11:35:11;25.90;58.20
37910;DHT22;23741;49.446;8.754;2022-08-18T11:39:22;26.00;58.20
37910;DHT22;23741;49.446;8.754;2022-08-18T11:41:37;26.10;57.90
37910;DHT22;23741;49.446;8.754;2022-08-18T11:43:53;26.10;58.00
37910;DHT22;23741;49.446;8.754;2022-08-18T11:45:56;26.10;57.90
37910;DHT22;23741;49.446;8.754;2022-08-18T11:50:11;26.10;57.70
37910;DHT22;23741;49.446;8.754;2022-08-18T11:52:27;26.10;57.60
37910;DHT22;23741;49.446;8.754;2022-08-18T11:54:39;26.20;57.70
37910;DHT22;23741;49.446;8.754;2022-08-18T11:56:53;26.20;57.70
37910;DHT22;23741;49.446;8.754;2022-08-18T12:01:52;26.20;57.80
37910;DHT22;23741;49.446;8.754;2022-08-18T12:03:55;26.20;57.70
37910;DHT22;23741;49.446;8.754;2022-08-18T12:06:07;26.30;57.80
37910;DHT22;23741;49.446;8.754;2022-08-18T12:08:21;26.30;57.60
37910;DHT22;23741;49.446;8.754;2022-08-18T12:10:44;26.30;57.50
37910;DHT22;23741;49.446;8.754;2022-08-18T12:12:52;26.30;57.50
37910;DHT22;23741;49.446;8.754;2022-08-18T12:17:09;26.30;57.60
37910;DHT22;23741;49.446;8.754;2022-08-18T12:19:12;26.30;57.60
37910;DHT22;23741;49.446;8.754;2022-08-18T12:21:14;26.30;57.60
37910;DHT22;23741;49.446;8.754;2022-08-18T12:23:16;26.30;57.30
37910;DHT22;23741;49.446;8.754;2022-08-18T12:25:18;26.30;57.30
37910;DHT22;23741;49.446;8.754;2022-08-18T12:27:26;26.30;57.10
37910;DHT22;23741;49.446;8.754;2022-08-18T12:29:34;26.40;57.40
37910;DHT22;23741;49.446;8.754;2022-08-18T12:31:56;26.40;57.50
37910;DHT22;23741;49.446;8.754;2022-08-18T12:33:58;26.30;57.30
37910;DHT22;23741;49.446;8.754;2022-08-18T12:36:02;26.30;57.40
37910;DHT22;23741;49.446;8.754;2022-08-18T12:38:05;26.40;57.30
37910;DHT22;23741;49.446;8.754;2022-08-18T12:40:14;26.30;57.30
37910;DHT22;23741;49.446;8.754;2022-08-18T12:42:16;26.30;57.30
37910;DHT22;23741;49.446;8.754;2022-08-18T12:44:20;26.30;57.40
37910;DHT22;23741;49.446;8.754;2022-08-18T12:46:22;26.30;57.30
37910;DHT22;23741;49.446;8.754;2022-08-18T12:48:26;26.30;57.30
37910;DHT22;23741;49.446;8.754;2022-08-18T12:50:28;26.30;57.30
37910;DHT22;23741;49.446;8.754;2022-08-18T12:52:33;26.30;57.20
37910;DHT22;23741;49.446;8.754;2022-08-18T12:54:35;26.40;57.40
37910;DHT22;23741;49.446;8.754;2022-08-18T12:56:56;26.40;57.50
37910;DHT22;23741;49.446;8.754;2022-08-18T12:58:59;26.40;57.40
37910;DHT22;23741;49.446;8.754;2022-08-18T13:01:05;26.40;57.40
37910;DHT22;23741;49.446;8.754;2022-08-18T13:03:08;26.40;57.20
37910;DHT22;23741;49.446;8.754;2022-08-18T13:05:09;26.40;57.10
37910;DHT22;23741;49.446;8.754;2022-08-18T13:07:13;26.50;57.30
37910;DHT22;23741;49.446;8.754;2022-08-18T13:09:19;26.50;57.50
37910;DHT22;23741;49.446;8.754;2022-08-18T13:11:41;26.60;57.50
37910;DHT22;23741;49.446;8.754;2022-08-18T13:13:43;26.60;57.40
37910;DHT22;23741;49.446;8.754;2022-08-18T13:15:45;26.60;57.50
37910;DHT22;23741;49.446;8.754;2022-08-18T13:17:59;26.70;57.40
37910;DHT22;23741;49.446;8.754;2022-08-18T13:20:06;26.80;57.50
37910;DHT22;23741;49.446;8.754;2022-08-18T13:22:09;26.80;57.30
37910;DHT22;23741;49.446;8.754;2022-08-18T13:24:13;26.90;57.30
37910;DHT22;23741;49.446;8.754;2022-08-18T13:26:26;26.90;57.30
37910;DHT22;23741;49.446;8.754;2022-08-18T13:28:29;27.00;57.30
37910;DHT22;23741;49.446;8.754;2022-08-18T13:30:36;27.10;58.30
37910;DHT22;23741;49.446;8.754;2022-08-18T13:32:39;27.10;57.30
37910;DHT22;23741;49.446;8.754;2022-08-18T13:35:00;27.20;57.50
37910;DHT22;23741;49.446;8.754;2022-08-18T13:37:03;27.30;57.60
37910;DHT22;23741;49.446;8.754;2022-08-18T13:39:06;27.50;58.30
37910;DHT22;23741;49.446;8.754;2022-08-18T13:41:09;27.50;57.40
37910;DHT22;23741;49.446;8.754;2022-08-18T13:43:18;27.70;57.50
37910;DHT22;23741;49.446;8.754;2022-08-18T13:45:23;27.80;57.50
37910;DHT22;23741;49.446;8.754;2022-08-18T13:47:26;27.90;57.30
37910;DHT22;23741;49.446;8.754;2022-08-18T13:49:30;28.00;57.30
37910;DHT22;23741;49.446;8.754;2022-08-18T13:51:32;28.20;57.30
37910;DHT22;23741;49.446;8.754;2022-08-18T13:53:35;28.30;57.20
37910;DHT22;23741;49.446;8.754;2022-08-18T13:55:51;28.40;57.00
37910;DHT22;23741;49.446;8.754;2022-08-18T13:57:53;28.50;56.80
37910;DHT22;23741;49.446;8.754;2022-08-18T13:59:56;28.60;56.70
37910;DHT22;23741;49.446;8.754;2022-08-18T14:01:59;28.70;56.70
37910;DHT22;23741;49.446;8.754;2022-08-18T14:04:02;28.80;56.50
37910;DHT22;23741;49.446;8.754;2022-08-18T14:06:13;28.90;56.20
37910;DHT22;23741;49.446;8.754;2022-08-18T14:08:22;29.00;56.10
37910;DHT22;23741;49.446;8.754;2022-08-18T14:10:24;29.10;55.70
37910;DHT22;23741;49.446;8.754;2022-08-18T14:12:26;29.20;55.60
37910;DHT22;23741;49.446;8.754;2022-08-18T14:14:34;29.30;55.50
37910;DHT22;23741;49.446;8.754;2022-08-18T14:16:36;29.40;55.60
37910;DHT22;23741;49.446;8.754;2022-08-18T14:18:42;29.40;55.40
37910;DHT22;23741;49.446;8.754;2022-08-18T14:20:46;29.50;55.20
37910;DHT22;23741;49.446;8.754;2022-08-18T14:23:09;29.50;55.00
37910;DHT22;23741;49.446;8.754;2022-08-18T14:25:34;29.60;55.00
37910;DHT22;23741;49.446;8.754;2022-08-18T14:27:54;29.60;55.00
37910;DHT22;23741;49.446;8.754;2022-08-18T14:29:57;29.70;55.00
37910;DHT22;23741;49.446;8.754;2022-08-18T14:32:00;29.70;54.90
37910;DHT22;23741;49.446;8.754;2022-08-18T14:34:02;29.80;54.90
37910;DHT22;23741;49.446;8.754;2022-08-18T14:36:05;29.80;54.90
37910;DHT22;23741;49.446;8.754;2022-08-18T14:38:10;29.90;54.70
37910;DHT22;23741;49.446;8.754;2022-08-18T14:40:12;29.90;54.60
37910;DHT22;23741;49.446;8.754;2022-08-18T14:42:14;30.00;54.50
37910;DHT22;23741;49.446;8.754;2022-08-18T14:44:17;30.00;54.30
37910;DHT22;23741;49.446;8.754;2022-08-18T14:46:24;30.10;54.40
37910;DHT22;23741;49.446;8.754;2022-08-18T14:48:33;30.10;53.80
37910;DHT22;23741;49.446;8.754;2022-08-18T14:50:38;30.20;54.00
37910;DHT22;23741;49.446;8.754;2022-08-18T14:52:45;30.20;54.10
37910;DHT22;23741;49.446;8.754;2022-08-18T14:54:52;30.30;53.70
37910;DHT22;23741;49.446;8.754;2022-08-18T14:56:55;30.40;53.70
37910;DHT22;23741;49.446;8.754;2022-08-18T14:58:57;30.40;53.80
37910;DHT22;23741;49.446;8.754;2022-08-18T15:01:01;30.40;53.80
37910;DHT22;23741;49.446;8.754;2022-08-18T15:03:10;30.50;53.80
37910;DHT22;23741;49.446;8.754;2022-08-18T15:05:12;30.50;53.30
37910;DHT22;23741;49.446;8.754;2022-08-18T15:07:20;30.50;53.30
37910;DHT22;23741;49.446;8.754;2022-08-18T15:09:24;30.60;53.40
37910;DHT22;23741;49.446;8.754;2022-08-18T15:11:28;30.60;53.40
37910;DHT22;23741;49.446;8.754;2022-08-18T15:13:32;30.70;53.40
37910;DHT22;23741;49.446;8.754;2022-08-18T15:15:37;30.70;53.40
37910;DHT22;23741;49.446;8.754;2022-08-18T15:17:52;30.70;53.10
37910;DHT22;23741;49.446;8.754;2022-08-18T15:19:54;30.70;53.10
37910;DHT22;23741;49.446;8.754;2022-08-18T15:22:14;30.80;53.10
37910;DHT22;23741;49.446;8.754;2022-08-18T15:24:37;30.80;52.90
37910;DHT22;23741;49.446;8.754;2022-08-18T15:26:58;30.80;52.80
37910;DHT22;23741;49.446;8.754;2022-08-18T15:29:06;30.90;52.60
37910;DHT22;23741;49.446;8.754;2022-08-18T15:31:15;30.90;52.70
37910;DHT22;23741;49.446;8.754;2022-08-18T15:33:18;30.90;52.70
37910;DHT22;23741;49.446;8.754;2022-08-18T15:35:25;31.00;52.60
37910;DHT22;23741;49.446;8.754;2022-08-18T15:37:29;31.00;52.50
37910;DHT22;23741;49.446;8.754;2022-08-18T15:39:34;31.00;52.20
37910;DHT22;23741;49.446;8.754;2022-08-18T15:41:40;31.00;52.10
37910;DHT22;23741;49.446;8.754;2022-08-18T15:43:45;31.00;52.00
37910;DHT22;23741;49.446;8.754;2022-08-18T15:45:48;31.00;51.90